createdAt,value
2019-05-09T00:01:38.175Z,10.60
2019-05-09T00:04:07.654Z,10.58
2019-05-09T00:06:37.129Z,10.62
2019-05-09T00:09:07.431Z,10.60
2019-05-09T00:11:37.242Z,10.60
2019-05-09T00:14:07.049Z,10.58
2019-05-09T00:16:36.792Z,10.55
2019-05-09T00:19:06.681Z,10.42
2019-05-09T00:21:38.130Z,10.31
2019-05-09T00:24:07.610Z,10.36
2019-05-09T00:26:37.337Z,10.35
2019-05-09T00:29:17.498Z,10.26
2019-05-09T00:31:53.981Z,10.17
2019-05-09T00:34:24.798Z,10.21
2019-05-09T00:36:54.611Z,10.23
2019-05-09T00:39:24.090Z,10.28
2019-05-09T00:41:54.139Z,10.31
2019-05-09T00:44:25.255Z,10.37
2019-05-09T00:47:13.505Z,10.38
2019-05-09T00:49:43.562Z,10.36
2019-05-09T00:52:14.139Z,10.36
2019-05-09T00:54:43.867Z,10.38
2019-05-09T00:57:15.005Z,10.39
2019-05-09T00:59:44.824Z,10.31
2019-05-09T01:02:14.636Z,10.29
2019-05-09T01:04:44.391Z,10.17
2019-05-09T01:07:14.156Z,10.11
2019-05-09T01:09:44.026Z,10.09
2019-05-09T01:12:14.380Z,10.05
2019-05-09T01:14:44.022Z,10.00
2019-05-09T01:17:13.769Z,9.93
2019-05-09T01:19:43.518Z,9.90
2019-05-09T01:22:13.349Z,9.93
2019-05-09T01:24:44.305Z,9.88
2019-05-09T01:27:14.285Z,9.86
2019-05-09T01:29:44.223Z,9.80
2019-05-09T01:32:15.331Z,9.79
2019-05-09T01:34:44.810Z,9.79
2019-05-09T01:37:14.278Z,9.78
2019-05-09T01:39:44.125Z,9.77
2019-05-09T01:42:13.882Z,9.79
2019-05-09T01:44:44.043Z,9.68
2019-05-09T01:47:14.234Z,9.69
2019-05-09T01:49:43.746Z,9.69
2019-05-09T01:52:13.823Z,9.70
2019-05-09T01:54:45.015Z,9.73
2019-05-09T01:57:14.504Z,9.76
2019-05-09T01:59:44.446Z,9.76
2019-05-09T02:02:14.317Z,9.77
2019-05-09T02:04:44.038Z,9.75
2019-05-09T02:07:13.543Z,9.74
2019-05-09T02:09:43.503Z,9.79
2019-05-09T02:12:14.148Z,9.81
2019-05-09T02:14:48.484Z,9.82
2019-05-09T02:17:34.895Z,9.79
2019-05-09T02:20:04.797Z,9.76
2019-05-09T02:22:35.126Z,9.89
2019-05-09T02:25:10.830Z,9.99
2019-05-09T02:27:40.684Z,9.97
2019-05-09T02:30:15.205Z,9.97
2019-05-09T02:32:45.254Z,9.96
2019-05-09T02:35:15.185Z,9.95
2019-05-09T02:37:44.661Z,9.96
2019-05-09T02:40:14.556Z,10.07
2019-05-09T02:42:44.037Z,10.13
2019-05-09T02:45:13.952Z,10.12
2019-05-09T02:47:43.442Z,10.10
2019-05-09T02:50:13.613Z,10.10
2019-05-09T02:52:43.103Z,10.04
2019-05-09T02:55:12.717Z,10.00
2019-05-09T02:57:42.566Z,9.97
2019-05-09T03:00:28.833Z,9.93
2019-05-09T03:03:02.869Z,10.00
2019-05-09T03:05:32.639Z,9.97
2019-05-09T03:08:02.119Z,9.95
2019-05-09T03:10:31.655Z,9.81
2019-05-09T03:13:01.203Z,9.80
2019-05-09T03:15:30.671Z,9.69
2019-05-09T03:18:00.253Z,9.67
2019-05-09T03:20:31.336Z,9.60
2019-05-09T03:23:00.820Z,9.54
2019-05-09T03:25:30.727Z,9.52
2019-05-09T03:27:59.980Z,9.46
2019-05-09T03:30:39.584Z,9.50
2019-05-09T03:33:10.244Z,9.47
2019-05-09T03:35:38.910Z,9.42
2019-05-09T03:38:08.619Z,9.33
2019-05-09T03:40:39.110Z,9.38
2019-05-09T03:43:08.589Z,9.33
2019-05-09T03:45:48.599Z,9.23
2019-05-09T03:48:28.167Z,9.15
2019-05-09T03:50:57.721Z,9.04
2019-05-09T03:53:27.661Z,9.01
2019-05-09T03:55:59.085Z,8.88
2019-05-09T03:58:28.556Z,8.83
2019-05-09T04:00:58.390Z,8.86
2019-05-09T04:03:27.872Z,8.75
2019-05-09T04:06:02.541Z,8.79
2019-05-09T04:08:29.161Z,8.78
2019-05-09T04:10:58.972Z,8.81
2019-05-09T04:13:30.086Z,8.70
2019-05-09T04:15:59.727Z,8.73
2019-05-09T04:18:29.529Z,8.74
2019-05-09T04:20:58.991Z,8.69
2019-05-09T04:23:28.471Z,8.71
2019-05-09T04:25:59.578Z,8.65
2019-05-09T04:28:29.055Z,8.69
2019-05-09T04:30:59.093Z,8.72
2019-05-09T04:33:28.577Z,8.74
2019-05-09T04:35:58.413Z,8.72
2019-05-09T04:38:28.224Z,8.77
2019-05-09T04:40:58.509Z,8.79
2019-05-09T04:43:35.472Z,8.76
2019-05-09T04:46:01.844Z,8.74
2019-05-09T04:48:32.370Z,8.74
2019-05-09T04:51:07.586Z,8.71
2019-05-09T04:53:37.654Z,8.75
2019-05-09T04:56:18.222Z,8.84
2019-05-09T04:58:48.282Z,8.94
2019-05-09T05:01:20.375Z,8.89
2019-05-09T05:03:51.725Z,8.94
2019-05-09T05:06:21.196Z,8.94
2019-05-09T05:08:50.679Z,9.02
2019-05-09T05:11:20.149Z,9.08
2019-05-09T05:13:50.168Z,9.22
2019-05-09T05:16:19.683Z,9.26
2019-05-09T05:18:49.186Z,9.37
2019-05-09T05:21:20.454Z,9.44
2019-05-09T05:23:49.918Z,9.51
2019-05-09T05:26:21.530Z,9.59
2019-05-09T05:28:51.007Z,9.67
2019-05-09T05:31:20.483Z,9.77
2019-05-09T05:33:53.933Z,9.86
2019-05-09T05:36:24.198Z,9.94
2019-05-09T05:38:53.837Z,9.98
2019-05-09T05:41:23.323Z,10.05
2019-05-09T05:43:52.805Z,10.13
2019-05-09T05:46:30.521Z,10.20
2019-05-09T05:48:59.992Z,10.25
2019-05-09T05:51:31.120Z,10.29
2019-05-09T05:54:01.529Z,10.35
2019-05-09T05:56:31.250Z,10.39
2019-05-09T05:59:01.009Z,10.48
2019-05-09T06:01:30.485Z,10.53
2019-05-09T06:04:00.320Z,10.59
2019-05-09T06:06:32.944Z,10.67
2019-05-09T06:09:01.406Z,10.66
2019-05-09T06:11:30.940Z,10.69
2019-05-09T06:14:08.791Z,10.71
2019-05-09T06:16:31.623Z,10.71
2019-05-09T06:19:02.066Z,10.73
2019-05-09T06:21:31.603Z,10.81
2019-05-09T06:24:01.101Z,10.87
2019-05-09T06:26:30.589Z,10.88
2019-05-09T06:29:00.152Z,10.90
2019-05-09T06:31:29.644Z,10.98
2019-05-09T06:33:59.117Z,10.98
2019-05-09T06:36:28.642Z,11.05
2019-05-09T06:38:58.925Z,11.06
2019-05-09T06:41:28.806Z,11.08
2019-05-09T06:44:16.375Z,11.13
2019-05-09T06:46:42.064Z,11.21
2019-05-09T06:49:24.809Z,11.26
2019-05-09T06:51:47.509Z,11.27
2019-05-09T06:54:17.506Z,11.26
2019-05-09T06:56:47.582Z,11.21
2019-05-09T06:59:19.068Z,11.20
2019-05-09T07:01:58.845Z,11.22
2019-05-09T07:04:30.300Z,11.26
2019-05-09T07:07:01.756Z,11.28
2019-05-09T07:09:33.205Z,11.51
2019-05-09T07:12:03.225Z,11.56
2019-05-09T07:14:38.265Z,11.57
2019-05-09T07:17:07.802Z,11.63
2019-05-09T07:19:38.336Z,11.70
2019-05-09T07:22:21.550Z,11.89
2019-05-09T07:25:00.863Z,12.04
2019-05-09T07:27:29.355Z,11.96
2019-05-09T07:30:02.940Z,12.13
2019-05-09T07:32:34.050Z,12.03
2019-05-09T07:35:08.636Z,12.10
2019-05-09T07:37:37.955Z,12.15
2019-05-09T07:40:08.627Z,12.20
2019-05-09T07:42:39.119Z,12.22
2019-05-09T07:45:09.070Z,12.20
2019-05-09T07:47:38.975Z,12.29
2019-05-09T07:50:09.082Z,12.38
2019-05-09T07:52:38.973Z,12.47
2019-05-09T07:55:09.145Z,12.44
2019-05-09T07:57:46.484Z,12.37
2019-05-09T08:00:10.994Z,12.47
2019-05-09T08:02:40.493Z,12.45
2019-05-09T08:05:13.127Z,12.52
2019-05-09T08:07:42.946Z,12.57
2019-05-09T08:10:12.557Z,12.64
2019-05-09T08:12:42.044Z,12.86
2019-05-09T08:15:16.498Z,12.61
2019-05-09T08:17:42.865Z,12.65
2019-05-09T08:20:13.889Z,12.51
2019-05-09T08:22:50.639Z,12.54
2019-05-09T08:25:14.897Z,12.70
2019-05-09T08:27:44.387Z,12.67
2019-05-09T08:30:14.154Z,12.80
2019-05-09T08:32:43.634Z,12.87
2019-05-09T08:35:13.193Z,12.92
2019-05-09T08:37:42.680Z,13.01
2019-05-09T08:40:12.604Z,13.19
2019-05-09T08:42:42.087Z,13.10
2019-05-09T08:45:24.536Z,12.97
2019-05-09T08:47:42.981Z,12.91
2019-05-09T08:50:14.193Z,12.77
2019-05-09T08:52:43.667Z,12.71
2019-05-09T08:55:13.223Z,12.63
2019-05-09T08:57:42.698Z,12.59
2019-05-09T09:00:13.113Z,12.50
2019-05-09T09:02:42.587Z,12.46
2019-05-09T09:05:14.094Z,12.45
2019-05-09T09:07:43.801Z,12.34
2019-05-09T09:10:13.426Z,12.30
2019-05-09T09:12:42.895Z,12.32
2019-05-09T09:15:12.486Z,12.26
2019-05-09T09:17:42.186Z,12.27
2019-05-09T09:20:12.031Z,12.25
2019-05-09T09:22:41.501Z,12.24
2019-05-09T09:25:11.318Z,12.33
2019-05-09T09:27:40.805Z,12.17
2019-05-09T09:30:20.212Z,12.06
2019-05-09T09:32:42.446Z,12.11
2019-05-09T09:35:12.036Z,12.16
2019-05-09T09:37:48.446Z,12.25
2019-05-09T09:40:13.311Z,12.07
2019-05-09T09:42:42.756Z,12.02
2019-05-09T09:45:12.364Z,12.09
2019-05-09T09:47:41.801Z,12.20
2019-05-09T09:50:11.396Z,12.26
2019-05-09T09:52:41.195Z,12.26
2019-05-09T09:55:10.870Z,12.33
2019-05-09T09:57:40.554Z,12.37
2019-05-09T10:00:19.021Z,12.55
2019-05-09T10:02:48.727Z,12.66
2019-05-09T10:05:18.498Z,12.78
2019-05-09T10:07:47.994Z,12.81
2019-05-09T10:10:35.801Z,12.91
2019-05-09T10:13:10.534Z,13.07
2019-05-09T10:15:47.477Z,13.20
2019-05-09T10:18:18.296Z,13.13
2019-05-09T10:21:07.438Z,13.26
2019-05-09T10:23:37.842Z,13.51
2019-05-09T10:26:08.496Z,13.77
2019-05-09T10:28:38.330Z,13.91
2019-05-09T10:31:08.416Z,13.93
2019-05-09T10:33:37.914Z,14.11
2019-05-09T10:36:08.435Z,14.16
2019-05-09T10:38:38.824Z,14.19
2019-05-09T10:41:11.387Z,14.30
2019-05-09T10:43:50.271Z,14.51
2019-05-09T10:46:47.655Z,14.72
2019-05-09T10:49:03.342Z,14.84
2019-05-09T10:51:32.787Z,14.92
2019-05-09T10:54:02.245Z,15.08
2019-05-09T10:56:31.977Z,15.14
2019-05-09T10:59:01.690Z,15.14
2019-05-09T11:01:31.133Z,15.26
2019-05-09T11:04:00.904Z,15.28
2019-05-09T11:06:30.352Z,15.26
2019-05-09T11:08:59.797Z,15.31
2019-05-09T11:11:29.506Z,15.41
2019-05-09T11:13:59.231Z,15.46
2019-05-09T11:16:42.035Z,15.73
2019-05-09T11:19:00.194Z,15.96
2019-05-09T11:21:29.993Z,15.91
2019-05-09T11:23:59.512Z,15.85
2019-05-09T11:26:29.094Z,15.59
2019-05-09T11:28:59.021Z,15.53
2019-05-09T11:31:29.606Z,15.47
2019-05-09T11:33:59.765Z,15.28
2019-05-09T11:36:29.446Z,15.25
2019-05-09T11:39:00.632Z,15.25
2019-05-09T11:41:30.473Z,15.35
2019-05-09T11:44:00.343Z,15.35
2019-05-09T11:46:29.785Z,15.28
2019-05-09T11:48:59.905Z,15.20
2019-05-09T11:51:29.630Z,15.17
2019-05-09T11:53:59.062Z,15.14
2019-05-09T11:56:28.778Z,15.13
2019-05-09T11:58:58.244Z,15.17
2019-05-09T12:01:29.186Z,15.09
2019-05-09T12:03:58.922Z,14.88
2019-05-09T12:06:29.235Z,14.82
2019-05-09T12:08:59.161Z,14.74
2019-05-09T12:11:28.850Z,14.72
2019-05-09T12:13:58.436Z,14.46
2019-05-09T12:16:28.190Z,14.42
2019-05-09T12:18:58.663Z,14.34
2019-05-09T12:21:28.839Z,14.32
2019-05-09T12:23:58.838Z,14.20
2019-05-09T12:26:29.281Z,14.13
2019-05-09T12:28:59.000Z,14.18
2019-05-09T12:31:29.239Z,14.18
2019-05-09T12:33:59.524Z,14.08
2019-05-09T12:36:29.343Z,14.13
2019-05-09T12:38:59.547Z,14.15
2019-05-09T12:41:31.654Z,14.21
2019-05-09T12:44:00.537Z,14.24
2019-05-09T12:46:29.975Z,14.13
2019-05-09T12:48:59.578Z,14.27
2019-05-09T12:51:29.357Z,14.28
2019-05-09T12:53:58.808Z,14.28
2019-05-09T12:56:28.728Z,14.28
2019-05-09T12:58:58.676Z,14.26
2019-05-09T13:01:28.383Z,14.36
2019-05-09T13:03:58.450Z,14.44
2019-05-09T13:06:29.607Z,14.40
2019-05-09T13:08:59.124Z,14.39
2019-05-09T13:11:28.555Z,14.45
2019-05-09T13:13:58.369Z,14.48
2019-05-09T13:16:43.949Z,14.53
2019-05-09T13:19:07.373Z,14.57
2019-05-09T13:21:38.915Z,14.50
2019-05-09T13:24:08.657Z,14.54
2019-05-09T13:26:38.929Z,14.51
2019-05-09T13:29:08.573Z,14.57
2019-05-09T13:31:39.689Z,14.58
2019-05-09T13:34:09.658Z,14.60
2019-05-09T13:36:39.363Z,14.61
2019-05-09T13:39:10.792Z,14.69
2019-05-09T13:41:42.403Z,14.74
2019-05-09T13:44:13.900Z,14.71
2019-05-09T13:46:43.191Z,14.67
2019-05-09T13:49:15.558Z,14.65
2019-05-09T13:51:51.229Z,14.60
2019-05-09T13:54:17.852Z,14.59
2019-05-09T13:56:52.138Z,14.54
2019-05-09T13:59:18.732Z,14.47
2019-05-09T14:01:48.544Z,14.39
2019-05-09T14:04:18.062Z,14.35
2019-05-09T14:06:48.735Z,14.06
2019-05-09T14:09:19.881Z,14.08
2019-05-09T14:11:49.661Z,14.02
2019-05-09T14:14:19.476Z,13.90
2019-05-09T14:16:48.894Z,13.86
2019-05-09T14:19:36.086Z,13.87
2019-05-09T14:21:49.542Z,13.92
2019-05-09T14:24:19.511Z,13.95
2019-05-09T14:26:49.324Z,13.95
2019-05-09T14:29:20.485Z,13.96
2019-05-09T14:31:50.276Z,13.97
2019-05-09T14:34:20.077Z,13.97
2019-05-09T14:36:49.833Z,13.93
2019-05-09T14:39:19.254Z,13.91
2019-05-09T14:41:48.779Z,13.95
2019-05-09T14:44:18.509Z,14.02
2019-05-09T14:46:48.381Z,14.06
2019-05-09T14:49:17.934Z,14.27
2019-05-09T14:51:49.976Z,14.34
2019-05-09T14:54:19.202Z,14.35
2019-05-09T14:56:49.538Z,14.30
2019-05-09T14:59:19.253Z,14.33
2019-05-09T15:01:49.573Z,14.27
2019-05-09T15:04:19.264Z,14.28
2019-05-09T15:06:48.999Z,14.20
2019-05-09T15:09:18.528Z,14.19
2019-05-09T15:11:48.646Z,14.17
2019-05-09T15:14:18.497Z,14.17
2019-05-09T15:16:48.745Z,14.16
2019-05-09T15:19:18.578Z,14.05
2019-05-09T15:21:48.881Z,13.99
2019-05-09T15:24:19.486Z,13.98
2019-05-09T15:26:50.018Z,13.90
2019-05-09T15:29:19.571Z,13.96
2019-05-09T15:31:54.163Z,13.94
2019-05-09T15:34:21.646Z,13.88
2019-05-09T15:36:51.092Z,13.85
2019-05-09T15:39:20.810Z,13.82
2019-05-09T15:41:50.252Z,13.85
2019-05-09T15:44:19.940Z,13.84
2019-05-09T15:46:51.080Z,13.77
2019-05-09T15:49:20.774Z,13.75
2019-05-09T15:51:50.472Z,13.80
2019-05-09T15:54:20.216Z,13.85
2019-05-09T15:56:49.664Z,13.98
2019-05-09T15:59:19.418Z,14.01
2019-05-09T16:01:49.339Z,14.07
2019-05-09T16:04:19.126Z,14.23
2019-05-09T16:06:50.551Z,14.40
2019-05-09T16:09:20.086Z,14.58
2019-05-09T16:11:49.801Z,14.62
2019-05-09T16:14:19.237Z,14.66
2019-05-09T16:16:49.005Z,14.61
2019-05-09T16:19:18.444Z,14.60
2019-05-09T16:21:48.222Z,14.67
2019-05-09T16:24:18.714Z,14.59
2019-05-09T16:26:48.927Z,14.61
2019-05-09T16:29:18.651Z,14.50
2019-05-09T16:31:48.478Z,14.46
2019-05-09T16:34:18.305Z,14.36
2019-05-09T16:36:48.091Z,14.33
2019-05-09T16:39:18.208Z,14.40
2019-05-09T16:41:48.490Z,14.32
2019-05-09T16:44:18.794Z,14.39
2019-05-09T16:46:48.892Z,14.37
2019-05-09T16:49:19.891Z,14.43
2019-05-09T16:51:49.616Z,14.56
2019-05-09T16:54:19.632Z,14.52
2019-05-09T16:56:49.313Z,14.47
2019-05-09T16:59:18.831Z,14.55
2019-05-09T17:01:50.229Z,14.58
2019-05-09T17:04:19.761Z,14.64
2019-05-09T17:06:49.875Z,14.64
2019-05-09T17:09:19.763Z,14.57
2019-05-09T17:11:49.204Z,14.57
2019-05-09T17:14:19.477Z,14.50
2019-05-09T17:16:52.665Z,14.39
2019-05-09T17:19:20.645Z,14.36
2019-05-09T17:21:54.458Z,14.32
2019-05-09T17:24:23.970Z,14.34
2019-05-09T17:26:53.407Z,14.32
2019-05-09T17:29:22.851Z,14.23
2019-05-09T17:31:52.572Z,14.28
2019-05-09T17:34:22.276Z,14.25
2019-05-09T17:36:51.715Z,14.16
2019-05-09T17:39:21.152Z,14.19
2019-05-09T17:41:50.886Z,14.21
2019-05-09T17:44:20.585Z,14.20
2019-05-09T17:46:50.275Z,14.23
2019-05-09T17:49:19.719Z,14.16
2019-05-09T17:51:49.169Z,14.14
2019-05-09T17:54:18.621Z,14.11
2019-05-09T17:56:48.524Z,14.09
2019-05-09T17:59:18.602Z,14.16
2019-05-09T18:01:48.429Z,14.16
2019-05-09T18:04:18.186Z,14.13
2019-05-09T18:06:48.974Z,14.10
2019-05-09T18:09:19.061Z,14.12
2019-05-09T18:11:48.751Z,14.04
2019-05-09T18:14:18.617Z,13.95
2019-05-09T18:16:48.115Z,13.91
2019-05-09T18:19:17.937Z,13.97
2019-05-09T18:21:51.044Z,13.97
2019-05-09T18:24:18.789Z,13.87
2019-05-09T18:26:48.229Z,13.86
2019-05-09T18:29:18.263Z,13.82
2019-05-09T18:31:49.540Z,13.85
2019-05-09T18:34:18.997Z,13.85
2019-05-09T18:36:48.556Z,13.83
2019-05-09T18:39:18.645Z,13.79
2019-05-09T18:41:48.466Z,13.80
2019-05-09T18:44:18.301Z,13.78
2019-05-09T18:46:48.198Z,13.73
2019-05-09T18:49:18.975Z,13.67
2019-05-09T18:52:02.412Z,13.59
2019-05-09T18:54:19.934Z,13.54
2019-05-09T18:56:49.659Z,13.49
2019-05-09T18:59:19.092Z,13.52
2019-05-09T19:01:48.849Z,13.54
2019-05-09T19:04:18.286Z,13.48
2019-05-09T19:06:47.731Z,13.46
2019-05-09T19:09:17.481Z,13.44
2019-05-09T19:11:47.036Z,13.49
2019-05-09T19:14:18.525Z,13.46
2019-05-09T19:16:48.024Z,13.40
2019-05-09T19:19:21.836Z,13.42
2019-05-09T19:21:53.179Z,13.41
2019-05-09T19:24:22.993Z,13.43
2019-05-09T19:26:52.442Z,13.38
2019-05-09T19:29:22.205Z,13.36
2019-05-09T19:31:51.669Z,13.31
2019-05-09T19:34:21.169Z,13.36
2019-05-09T19:36:51.027Z,13.26
2019-05-09T19:39:20.466Z,13.29
2019-05-09T19:41:49.907Z,13.28
2019-05-09T19:44:19.743Z,13.27
2019-05-09T19:46:49.472Z,13.23
2019-05-09T19:49:18.913Z,13.20
2019-05-09T19:51:49.207Z,13.26
2019-05-09T19:54:18.884Z,13.19
2019-05-09T19:56:48.575Z,13.07
2019-05-09T19:59:18.016Z,12.99
2019-05-09T20:01:47.813Z,12.98
2019-05-09T20:04:17.250Z,12.96
2019-05-09T20:06:46.699Z,12.92
2019-05-09T20:09:17.776Z,12.94
2019-05-09T20:11:49.321Z,12.88
2019-05-09T20:14:20.405Z,12.79
2019-05-09T20:16:51.741Z,12.78
2019-05-09T20:19:21.513Z,12.73
2019-05-09T20:21:51.318Z,12.66
2019-05-09T20:24:20.874Z,12.65
2019-05-09T20:26:50.307Z,12.63
2019-05-09T20:29:19.752Z,12.56
2019-05-09T20:31:49.555Z,12.54
2019-05-09T20:34:18.981Z,12.49
2019-05-09T20:36:48.758Z,12.52
2019-05-09T20:39:18.377Z,12.52
2019-05-09T20:41:48.238Z,12.44
2019-05-09T20:44:18.110Z,12.40
2019-05-09T20:46:47.736Z,12.35
2019-05-09T20:49:17.620Z,12.27
2019-05-09T20:51:47.304Z,12.29
2019-05-09T20:54:20.852Z,12.32
2019-05-09T20:56:48.576Z,12.20
2019-05-09T20:59:18.211Z,12.19
2019-05-09T21:01:48.102Z,12.18
2019-05-09T21:04:18.005Z,12.26
2019-05-09T21:06:48.026Z,12.23
2019-05-09T21:09:17.650Z,12.14
2019-05-09T21:11:47.270Z,12.11
2019-05-09T21:14:17.161Z,12.23
2019-05-09T21:16:47.063Z,12.17
2019-05-09T21:19:16.695Z,12.13
2019-05-09T21:21:46.320Z,12.14
2019-05-09T21:24:15.955Z,12.19
2019-05-09T21:26:45.821Z,12.15
2019-05-09T21:29:15.714Z,12.10
2019-05-09T21:31:45.338Z,12.13
2019-05-09T21:34:14.967Z,12.08
2019-05-09T21:36:44.650Z,12.03
2019-05-09T21:39:14.361Z,12.03
2019-05-09T21:41:43.799Z,11.98
2019-05-09T21:44:13.567Z,11.94
2019-05-09T21:46:43.002Z,12.02
2019-05-09T21:49:12.775Z,11.94
2019-05-09T21:51:42.472Z,11.85
2019-05-09T21:54:12.194Z,11.87
2019-05-09T21:56:41.632Z,11.86
2019-05-09T21:59:11.408Z,11.83
2019-05-09T22:01:41.841Z,11.79
2019-05-09T22:04:11.283Z,11.66
2019-05-09T22:06:40.722Z,11.59
2019-05-09T22:09:11.156Z,11.54
2019-05-09T22:11:41.076Z,11.61
2019-05-09T22:14:10.525Z,11.60
2019-05-09T22:16:39.959Z,11.58
2019-05-09T22:19:09.404Z,11.62
2019-05-09T22:21:38.841Z,11.59
2019-05-09T22:24:08.285Z,11.62
2019-05-09T22:26:37.728Z,11.62
2019-05-09T22:29:07.507Z,11.63
2019-05-09T22:31:36.934Z,11.59
2019-05-09T22:34:06.383Z,11.63
2019-05-09T22:36:35.818Z,11.66
2019-05-09T22:39:07.910Z,11.66
2019-05-09T22:41:37.691Z,11.65
2019-05-09T22:44:07.129Z,11.67
2019-05-09T22:46:36.633Z,11.64
2019-05-09T22:49:06.321Z,11.63
2019-05-09T22:51:35.758Z,11.67
2019-05-09T22:54:12.618Z,11.64
2019-05-09T22:56:36.371Z,11.64
2019-05-09T22:59:06.081Z,11.60
2019-05-09T23:01:36.176Z,11.57
2019-05-09T23:04:05.988Z,11.57
2019-05-09T23:06:35.424Z,11.50
2019-05-09T23:09:06.951Z,11.52
2019-05-09T23:11:36.654Z,11.48
2019-05-09T23:14:06.170Z,11.45
2019-05-09T23:16:37.246Z,11.50
2019-05-09T23:19:07.011Z,11.50
2019-05-09T23:21:36.452Z,11.53
2019-05-09T23:24:10.414Z,11.43
2019-05-09T23:26:40.131Z,11.40
2019-05-09T23:29:09.943Z,11.39
2019-05-09T23:31:41.019Z,11.37
2019-05-09T23:34:10.790Z,11.38
2019-05-09T23:36:40.255Z,11.31
2019-05-09T23:39:26.661Z,11.29
2019-05-09T23:41:56.305Z,11.30
2019-05-09T23:44:25.755Z,11.29
2019-05-09T23:46:55.528Z,11.31
2019-05-09T23:49:24.966Z,11.28
2019-05-09T23:51:54.401Z,11.32
2019-05-09T23:54:46.935Z,11.26
2019-05-09T23:57:31.234Z,11.28
